createdAt,value
2022-09-10T00:15:38.798Z,15.14
2022-09-10T00:35:38.812Z,15.24
2022-09-10T00:55:38.774Z,15.61
2022-09-10T01:15:38.769Z,15.76
2022-09-10T01:35:38.757Z,15.69
2022-09-10T01:55:38.757Z,15.6
2022-09-10T02:15:38.750Z,15.43
2022-09-10T02:35:38.745Z,15.24
2022-09-10T02:55:38.734Z,15.32
2022-09-10T03:15:38.726Z,15.24
2022-09-10T03:35:38.714Z,15.2
2022-09-10T03:55:38.706Z,15.13
2022-09-10T04:15:38.704Z,15.08
2022-09-10T04:55:38.680Z,15.03
2022-09-10T05:15:38.680Z,15.03
2022-09-10T05:35:38.668Z,15.1
2022-09-10T06:15:38.655Z,14.66
2022-09-10T06:35:38.653Z,14.69
2022-09-10T06:55:38.657Z,14.92
2022-09-10T07:35:38.685Z,14.85
2022-09-10T07:55:38.618Z,15.15
2022-09-10T08:15:38.612Z,15.44
2022-09-10T08:35:38.604Z,15.8
2022-09-10T08:55:38.592Z,16.13
2022-09-10T09:15:38.602Z,16.18
2022-09-10T09:35:38.576Z,16.53
2022-09-10T09:55:38.573Z,16.59
2022-09-10T10:15:38.595Z,16.54
2022-09-10T10:55:38.549Z,15.26
2022-09-10T11:15:38.562Z,15.11
2022-09-10T11:35:38.533Z,15.49
2022-09-10T11:55:38.518Z,16.17
2022-09-10T12:15:38.556Z,16.25
2022-09-10T12:35:38.506Z,16.44
2022-09-10T12:55:38.496Z,16.36
2022-09-10T13:35:38.484Z,16.07
2022-09-10T14:35:38.458Z,15.89
2022-09-10T15:15:38.510Z,16.31
2022-09-10T15:35:38.431Z,16.55
2022-09-10T16:35:38.404Z,16.51
2022-09-10T16:55:38.403Z,16.43
2022-09-10T17:15:38.441Z,16.38
2022-09-10T17:35:38.389Z,16.28
2022-09-10T17:55:38.379Z,16.17
2022-09-10T18:15:38.414Z,16.2
2022-09-10T18:35:38.394Z,16.19
2022-09-10T18:55:38.365Z,16.17
2022-09-10T19:15:38.384Z,16.1
2022-09-10T19:35:38.341Z,16.05
2022-09-10T20:35:38.318Z,15.73
2022-09-10T20:55:38.307Z,15.68
2022-09-10T21:15:38.326Z,15.66
2022-09-10T21:35:38.286Z,15.51
2022-09-10T21:55:38.289Z,15.39
2022-09-10T22:15:38.315Z,15.3
2022-09-10T22:35:38.263Z,15.18
2022-09-10T22:55:38.263Z,15.06
2022-09-10T23:15:38.247Z,14.96
